E38

Alpine-Casparis Municipal Airport

Alpine, Texas, USA
METAR KE38 181255Z AUTO 00000KT 10SM CLR 20/16 A3015 RMK AO2 T01990160
Observed Flight Rules
Jun-18 @ 12:55 UTC (21 minutes ago) Visual Flight Rules
Visibility Clouds
10 miles
  • Clear skies
Temperatures Readings
Current 20°C / 68°F
Dewpoint 16°C / 61°F
Humidity 78%
Altimeter 30.15" Hg
Pressure 1021 hPa
Elevation 1376
METAR KE38 181255Z AUTO 00000KT 10SM CLR 20/16 A3015 RMK AO2 T01990160
Observed Flight Rules
Jun-18 @ 12:55 UTC
(21 minutes ago)
VFR
Clouds
  • Clear skies
Temperature Dewpoint
20°C / 68°F 16°C / 61°F
Humidity Altimeter Pressure
78% 30.15" Hg 1021 hPa